sensor_id;sensor_type;location;lat;lon;timestamp;P1;durP1;ratioP1;P2;durP2;ratioP2
72139;SDS011;60018;49.688;19.180;2022-12-29T00:01:32;1.03;;;1.03;;
72139;SDS011;60018;49.688;19.180;2022-12-29T00:03:58;0.97;;;0.97;;
72139;SDS011;60018;49.688;19.180;2022-12-29T00:06:24;1.07;;;1.07;;
72139;SDS011;60018;49.688;19.180;2022-12-29T00:08:50;1.13;;;1.13;;
72139;SDS011;60018;49.688;19.180;2022-12-29T00:11:16;1.13;;;1.13;;
72139;SDS011;60018;49.688;19.180;2022-12-29T00:13:42;1.40;;;1.40;;
72139;SDS011;60018;49.688;19.180;2022-12-29T00:16:08;1.17;;;1.17;;
72139;SDS011;60018;49.688;19.180;2022-12-29T00:18:35;1.13;;;1.13;;
72139;SDS011;60018;49.688;19.180;2022-12-29T00:21:00;1.13;;;1.13;;
72139;SDS011;60018;49.688;19.180;2022-12-29T00:23:26;1.17;;;1.17;;
72139;SDS011;60018;49.688;19.180;2022-12-29T00:25:51;1.07;;;1.07;;
72139;SDS011;60018;49.688;19.180;2022-12-29T00:28:16;1.17;;;1.17;;
72139;SDS011;60018;49.688;19.180;2022-12-29T00:30:42;0.87;;;0.87;;
72139;SDS011;60018;49.688;19.180;2022-12-29T00:33:08;1.17;;;1.17;;
72139;SDS011;60018;49.688;19.180;2022-12-29T00:35:37;0.87;;;0.87;;
72139;SDS011;60018;49.688;19.180;2022-12-29T00:38:04;1.20;;;1.20;;
72139;SDS011;60018;49.688;19.180;2022-12-29T00:40:31;0.93;;;0.93;;
72139;SDS011;60018;49.688;19.180;2022-12-29T00:42:57;0.90;;;0.90;;
72139;SDS011;60018;49.688;19.180;2022-12-29T00:45:22;1.07;;;1.07;;
72139;SDS011;60018;49.688;19.180;2022-12-29T00:47:48;0.90;;;0.90;;
72139;SDS011;60018;49.688;19.180;2022-12-29T00:50:13;1.17;;;1.17;;
72139;SDS011;60018;49.688;19.180;2022-12-29T00:52:40;1.17;;;1.17;;
72139;SDS011;60018;49.688;19.180;2022-12-29T00:55:05;0.93;;;0.93;;
72139;SDS011;60018;49.688;19.180;2022-12-29T00:57:31;1.07;;;1.07;;
72139;SDS011;60018;49.688;19.180;2022-12-29T00:59:56;1.17;;;1.17;;
72139;SDS011;60018;49.688;19.180;2022-12-29T01:02:22;1.00;;;1.00;;
72139;SDS011;60018;49.688;19.180;2022-12-29T01:04:47;0.97;;;0.97;;
72139;SDS011;60018;49.688;19.180;2022-12-29T01:07:13;1.07;;;1.07;;
72139;SDS011;60018;49.688;19.180;2022-12-29T01:09:39;0.93;;;0.93;;
72139;SDS011;60018;49.688;19.180;2022-12-29T01:12:05;1.17;;;1.17;;
72139;SDS011;60018;49.688;19.180;2022-12-29T01:14:32;1.20;;;1.20;;
72139;SDS011;60018;49.688;19.180;2022-12-29T01:16:57;1.23;;;1.23;;
72139;SDS011;60018;49.688;19.180;2022-12-29T01:19:23;1.43;;;1.37;;
72139;SDS011;60018;49.688;19.180;2022-12-29T01:21:49;1.40;;;1.30;;
72139;SDS011;60018;49.688;19.180;2022-12-29T01:24:15;1.07;;;1.07;;
72139;SDS011;60018;49.688;19.180;2022-12-29T01:26:43;1.33;;;1.33;;
72139;SDS011;60018;49.688;19.180;2022-12-29T01:29:08;1.30;;;1.27;;
72139;SDS011;60018;49.688;19.180;2022-12-29T01:31:34;0.93;;;0.93;;
72139;SDS011;60018;49.688;19.180;2022-12-29T01:34:00;0.87;;;0.87;;
72139;SDS011;60018;49.688;19.180;2022-12-29T01:36:25;1.23;;;1.23;;
72139;SDS011;60018;49.688;19.180;2022-12-29T01:38:51;1.07;;;1.07;;
72139;SDS011;60018;49.688;19.180;2022-12-29T01:41:16;0.97;;;0.97;;
72139;SDS011;60018;49.688;19.180;2022-12-29T01:43:44;0.80;;;0.80;;
72139;SDS011;60018;49.688;19.180;2022-12-29T01:46:19;1.03;;;1.03;;
72139;SDS011;60018;49.688;19.180;2022-12-29T01:48:47;0.93;;;0.93;;
72139;SDS011;60018;49.688;19.180;2022-12-29T01:51:13;1.80;;;1.70;;
72139;SDS011;60018;49.688;19.180;2022-12-29T01:53:39;1.07;;;1.07;;
72139;SDS011;60018;49.688;19.180;2022-12-29T01:56:06;1.27;;;1.27;;
72139;SDS011;60018;49.688;19.180;2022-12-29T01:58:34;1.03;;;1.03;;
72139;SDS011;60018;49.688;19.180;2022-12-29T02:01:03;1.00;;;1.00;;
72139;SDS011;60018;49.688;19.180;2022-12-29T02:03:29;1.17;;;1.17;;
72139;SDS011;60018;49.688;19.180;2022-12-29T02:05:56;1.07;;;1.07;;
72139;SDS011;60018;49.688;19.180;2022-12-29T02:08:24;1.10;;;1.10;;
72139;SDS011;60018;49.688;19.180;2022-12-29T02:10:51;1.30;;;1.30;;
72139;SDS011;60018;49.688;19.180;2022-12-29T02:13:19;1.00;;;1.00;;
72139;SDS011;60018;49.688;19.180;2022-12-29T02:15:48;0.87;;;0.87;;
72139;SDS011;60018;49.688;19.180;2022-12-29T02:18:24;1.03;;;1.03;;
72139;SDS011;60018;49.688;19.180;2022-12-29T02:21:02;1.20;;;1.20;;
72139;SDS011;60018;49.688;19.180;2022-12-29T02:24:01;1.13;;;1.13;;
72139;SDS011;60018;49.688;19.180;2022-12-29T02:29:40;1.13;;;1.13;;
72139;SDS011;60018;49.688;19.180;2022-12-29T02:32:28;1.07;;;1.07;;
72139;SDS011;60018;49.688;19.180;2022-12-29T02:35:01;0.97;;;0.97;;
72139;SDS011;60018;49.688;19.180;2022-12-29T02:37:30;1.17;;;1.17;;
72139;SDS011;60018;49.688;19.180;2022-12-29T02:40:01;1.20;;;1.20;;
72139;SDS011;60018;49.688;19.180;2022-12-29T02:42:33;1.17;;;1.17;;
72139;SDS011;60018;49.688;19.180;2022-12-29T02:45:02;0.73;;;0.73;;
72139;SDS011;60018;49.688;19.180;2022-12-29T02:47:33;1.23;;;1.23;;
72139;SDS011;60018;49.688;19.180;2022-12-29T02:50:02;1.05;;;1.05;;
72139;SDS011;60018;49.688;19.180;2022-12-29T02:52:31;1.17;;;1.17;;
72139;SDS011;60018;49.688;19.180;2022-12-29T02:54:59;1.27;;;1.27;;
72139;SDS011;60018;49.688;19.180;2022-12-29T02:57:28;1.17;;;1.17;;
72139;SDS011;60018;49.688;19.180;2022-12-29T02:59:57;1.10;;;1.10;;
72139;SDS011;60018;49.688;19.180;2022-12-29T03:02:33;0.93;;;0.93;;
72139;SDS011;60018;49.688;19.180;2022-12-29T03:05:14;1.20;;;1.20;;
72139;SDS011;60018;49.688;19.180;2022-12-29T03:07:46;1.07;;;1.07;;
72139;SDS011;60018;49.688;19.180;2022-12-29T03:10:19;1.07;;;1.07;;
72139;SDS011;60018;49.688;19.180;2022-12-29T03:12:54;0.93;;;0.93;;
72139;SDS011;60018;49.688;19.180;2022-12-29T03:15:24;1.20;;;1.20;;
72139;SDS011;60018;49.688;19.180;2022-12-29T03:17:54;1.07;;;1.07;;
72139;SDS011;60018;49.688;19.180;2022-12-29T03:20:23;1.00;;;1.00;;
72139;SDS011;60018;49.688;19.180;2022-12-29T03:22:50;1.07;;;1.07;;
72139;SDS011;60018;49.688;19.180;2022-12-29T03:25:19;1.13;;;1.13;;
72139;SDS011;60018;49.688;19.180;2022-12-29T03:27:48;1.10;;;1.10;;
72139;SDS011;60018;49.688;19.180;2022-12-29T03:30:16;1.17;;;1.17;;
72139;SDS011;60018;49.688;19.180;2022-12-29T03:32:42;1.17;;;1.17;;
72139;SDS011;60018;49.688;19.180;2022-12-29T03:35:11;1.17;;;1.17;;
72139;SDS011;60018;49.688;19.180;2022-12-29T03:37:39;1.07;;;1.07;;
72139;SDS011;60018;49.688;19.180;2022-12-29T03:40:07;1.23;;;1.23;;
72139;SDS011;60018;49.688;19.180;2022-12-29T03:42:33;1.20;;;1.20;;
72139;SDS011;60018;49.688;19.180;2022-12-29T03:45:00;1.03;;;1.03;;
72139;SDS011;60018;49.688;19.180;2022-12-29T03:47:26;0.87;;;0.87;;
72139;SDS011;60018;49.688;19.180;2022-12-29T03:49:51;1.13;;;1.13;;
72139;SDS011;60018;49.688;19.180;2022-12-29T03:52:19;1.10;;;1.10;;
72139;SDS011;60018;49.688;19.180;2022-12-29T03:54:45;1.07;;;1.07;;
72139;SDS011;60018;49.688;19.180;2022-12-29T03:57:10;1.23;;;1.23;;
72139;SDS011;60018;49.688;19.180;2022-12-29T03:59:36;0.93;;;0.93;;
72139;SDS011;60018;49.688;19.180;2022-12-29T04:02:01;1.03;;;1.03;;
72139;SDS011;60018;49.688;19.180;2022-12-29T04:04:27;1.20;;;1.20;;
72139;SDS011;60018;49.688;19.180;2022-12-29T04:06:52;1.07;;;1.07;;
72139;SDS011;60018;49.688;19.180;2022-12-29T04:09:19;1.17;;;1.17;;
72139;SDS011;60018;49.688;19.180;2022-12-29T04:11:44;0.93;;;0.93;;
72139;SDS011;60018;49.688;19.180;2022-12-29T04:14:10;1.17;;;1.17;;
72139;SDS011;60018;49.688;19.180;2022-12-29T04:16:35;1.13;;;1.13;;
72139;SDS011;60018;49.688;19.180;2022-12-29T04:19:01;0.93;;;0.93;;
72139;SDS011;60018;49.688;19.180;2022-12-29T04:21:26;0.93;;;0.93;;
72139;SDS011;60018;49.688;19.180;2022-12-29T04:23:52;1.20;;;1.20;;
72139;SDS011;60018;49.688;19.180;2022-12-29T04:26:19;0.97;;;0.97;;
72139;SDS011;60018;49.688;19.180;2022-12-29T04:28:44;1.07;;;1.07;;
72139;SDS011;60018;49.688;19.180;2022-12-29T04:31:09;1.07;;;1.07;;
72139;SDS011;60018;49.688;19.180;2022-12-29T04:33:35;1.17;;;1.17;;
72139;SDS011;60018;49.688;19.180;2022-12-29T04:36:00;1.17;;;1.17;;
72139;SDS011;60018;49.688;19.180;2022-12-29T04:38:26;1.13;;;1.13;;
72139;SDS011;60018;49.688;19.180;2022-12-29T04:40:52;1.23;;;1.23;;
72139;SDS011;60018;49.688;19.180;2022-12-29T04:43:19;0.70;;;0.70;;
72139;SDS011;60018;49.688;19.180;2022-12-29T04:45:44;1.13;;;1.13;;
72139;SDS011;60018;49.688;19.180;2022-12-29T04:48:10;0.87;;;0.87;;
72139;SDS011;60018;49.688;19.180;2022-12-29T04:50:36;1.20;;;1.20;;
72139;SDS011;60018;49.688;19.180;2022-12-29T04:53:01;0.97;;;0.97;;
72139;SDS011;60018;49.688;19.180;2022-12-29T04:55:26;1.03;;;1.03;;
72139;SDS011;60018;49.688;19.180;2022-12-29T04:57:52;1.07;;;1.07;;
72139;SDS011;60018;49.688;19.180;2022-12-29T05:00:19;1.07;;;1.07;;
72139;SDS011;60018;49.688;19.180;2022-12-29T05:02:44;0.97;;;0.97;;
72139;SDS011;60018;49.688;19.180;2022-12-29T05:05:10;0.93;;;0.93;;
72139;SDS011;60018;49.688;19.180;2022-12-29T05:07:36;0.87;;;0.87;;
72139;SDS011;60018;49.688;19.180;2022-12-29T05:10:01;0.80;;;0.80;;
72139;SDS011;60018;49.688;19.180;2022-12-29T05:12:29;1.13;;;1.13;;
72139;SDS011;60018;49.688;19.180;2022-12-29T05:14:54;1.07;;;1.07;;
72139;SDS011;60018;49.688;19.180;2022-12-29T05:17:21;0.87;;;0.87;;
72139;SDS011;60018;49.688;19.180;2022-12-29T05:19:47;1.20;;;1.20;;
72139;SDS011;60018;49.688;19.180;2022-12-29T05:22:12;0.90;;;0.90;;
72139;SDS011;60018;49.688;19.180;2022-12-29T05:24:37;1.17;;;1.17;;
72139;SDS011;60018;49.688;19.180;2022-12-29T05:27:03;1.23;;;1.23;;
72139;SDS011;60018;49.688;19.180;2022-12-29T05:29:28;1.10;;;1.10;;
72139;SDS011;60018;49.688;19.180;2022-12-29T05:31:54;1.03;;;1.03;;
72139;SDS011;60018;49.688;19.180;2022-12-29T05:34:21;1.17;;;1.17;;
72139;SDS011;60018;49.688;19.180;2022-12-29T05:36:46;1.17;;;1.17;;
72139;SDS011;60018;49.688;19.180;2022-12-29T05:39:11;1.23;;;1.23;;
72139;SDS011;60018;49.688;19.180;2022-12-29T05:41:37;1.07;;;1.07;;
72139;SDS011;60018;49.688;19.180;2022-12-29T05:44:02;0.97;;;0.97;;
72139;SDS011;60018;49.688;19.180;2022-12-29T05:46:28;1.07;;;1.07;;
72139;SDS011;60018;49.688;19.180;2022-12-29T05:48:53;1.07;;;1.07;;
72139;SDS011;60018;49.688;19.180;2022-12-29T05:51:20;1.17;;;1.17;;
72139;SDS011;60018;49.688;19.180;2022-12-29T05:53:45;1.00;;;1.00;;
72139;SDS011;60018;49.688;19.180;2022-12-29T05:56:11;0.87;;;0.87;;
72139;SDS011;60018;49.688;19.180;2022-12-29T05:58:36;1.07;;;1.07;;
72139;SDS011;60018;49.688;19.180;2022-12-29T06:01:02;0.87;;;0.87;;
72139;SDS011;60018;49.688;19.180;2022-12-29T06:03:27;1.17;;;1.17;;
72139;SDS011;60018;49.688;19.180;2022-12-29T06:05:53;1.17;;;1.17;;
72139;SDS011;60018;49.688;19.180;2022-12-29T06:08:20;0.93;;;0.93;;
72139;SDS011;60018;49.688;19.180;2022-12-29T06:10:45;1.17;;;1.17;;
72139;SDS011;60018;49.688;19.180;2022-12-29T06:13:10;1.13;;;1.13;;
72139;SDS011;60018;49.688;19.180;2022-12-29T06:15:36;1.07;;;1.07;;
72139;SDS011;60018;49.688;19.180;2022-12-29T06:18:01;1.03;;;1.03;;
72139;SDS011;60018;49.688;19.180;2022-12-29T06:20:27;1.20;;;1.20;;
72139;SDS011;60018;49.688;19.180;2022-12-29T06:22:52;1.43;;;1.43;;
72139;SDS011;60018;49.688;19.180;2022-12-29T06:25:19;0.97;;;0.97;;
72139;SDS011;60018;49.688;19.180;2022-12-29T06:27:44;1.37;;;1.37;;
72139;SDS011;60018;49.688;19.180;2022-12-29T06:30:10;0.93;;;0.93;;
72139;SDS011;60018;49.688;19.180;2022-12-29T06:32:37;1.07;;;1.07;;
72139;SDS011;60018;49.688;19.180;2022-12-29T06:35:03;1.27;;;1.27;;
72139;SDS011;60018;49.688;19.180;2022-12-29T06:37:29;1.17;;;1.17;;
72139;SDS011;60018;49.688;19.180;2022-12-29T06:39:54;0.87;;;0.87;;
72139;SDS011;60018;49.688;19.180;2022-12-29T06:42:21;1.40;;;1.30;;
72139;SDS011;60018;49.688;19.180;2022-12-29T06:44:47;1.30;;;1.30;;
72139;SDS011;60018;49.688;19.180;2022-12-29T06:47:12;1.23;;;1.23;;
72139;SDS011;60018;49.688;19.180;2022-12-29T06:49:38;1.23;;;1.23;;
72139;SDS011;60018;49.688;19.180;2022-12-29T06:52:03;1.27;;;1.27;;
72139;SDS011;60018;49.688;19.180;2022-12-29T06:54:29;1.40;;;1.30;;
72139;SDS011;60018;49.688;19.180;2022-12-29T06:56:54;1.00;;;1.00;;
72139;SDS011;60018;49.688;19.180;2022-12-29T06:59:21;1.33;;;1.33;;
72139;SDS011;60018;49.688;19.180;2022-12-29T07:01:46;1.03;;;1.03;;
72139;SDS011;60018;49.688;19.180;2022-12-29T07:04:12;0.93;;;0.93;;
72139;SDS011;60018;49.688;19.180;2022-12-29T07:06:37;1.07;;;1.07;;
72139;SDS011;60018;49.688;19.180;2022-12-29T07:09:03;1.33;;;1.23;;
72139;SDS011;60018;49.688;19.180;2022-12-29T07:11:28;1.47;;;1.37;;
72139;SDS011;60018;49.688;19.180;2022-12-29T07:13:54;1.33;;;1.23;;
72139;SDS011;60018;49.688;19.180;2022-12-29T07:16:20;1.43;;;1.33;;
72139;SDS011;60018;49.688;19.180;2022-12-29T07:18:46;1.03;;;1.03;;
72139;SDS011;60018;49.688;19.180;2022-12-29T07:21:11;1.07;;;1.07;;
72139;SDS011;60018;49.688;19.180;2022-12-29T07:23:37;1.13;;;1.13;;
72139;SDS011;60018;49.688;19.180;2022-12-29T07:26:03;1.43;;;1.33;;
72139;SDS011;60018;49.688;19.180;2022-12-29T07:28:29;1.43;;;1.33;;
72139;SDS011;60018;49.688;19.180;2022-12-29T07:30:54;1.47;;;1.37;;
72139;SDS011;60018;49.688;19.180;2022-12-29T07:33:21;1.47;;;1.37;;
72139;SDS011;60018;49.688;19.180;2022-12-29T07:35:47;1.23;;;1.23;;
72139;SDS011;60018;49.688;19.180;2022-12-29T07:38:12;1.47;;;1.37;;
72139;SDS011;60018;49.688;19.180;2022-12-29T07:40:38;1.50;;;1.40;;
72139;SDS011;60018;49.688;19.180;2022-12-29T07:43:03;1.47;;;1.37;;
72139;SDS011;60018;49.688;19.180;2022-12-29T07:45:29;1.33;;;1.23;;
72139;SDS011;60018;49.688;19.180;2022-12-29T07:47:54;1.40;;;1.30;;
72139;SDS011;60018;49.688;19.180;2022-12-29T07:50:21;1.67;;;1.57;;
72139;SDS011;60018;49.688;19.180;2022-12-29T07:52:46;1.50;;;1.40;;
72139;SDS011;60018;49.688;19.180;2022-12-29T07:55:12;1.53;;;1.43;;
72139;SDS011;60018;49.688;19.180;2022-12-29T07:57:37;1.57;;;1.47;;
72139;SDS011;60018;49.688;19.180;2022-12-29T08:00:03;1.47;;;1.37;;
72139;SDS011;60018;49.688;19.180;2022-12-29T08:02:29;1.73;;;1.57;;
72139;SDS011;60018;49.688;19.180;2022-12-29T08:04:54;1.83;;;1.63;;
72139;SDS011;60018;49.688;19.180;2022-12-29T08:07:21;1.53;;;1.43;;
72139;SDS011;60018;49.688;19.180;2022-12-29T08:09:46;1.70;;;1.57;;
72139;SDS011;60018;49.688;19.180;2022-12-29T08:12:12;1.70;;;1.53;;
72139;SDS011;60018;49.688;19.180;2022-12-29T08:14:37;1.70;;;1.57;;
72139;SDS011;60018;49.688;19.180;2022-12-29T08:17:03;1.70;;;1.53;;
72139;SDS011;60018;49.688;19.180;2022-12-29T08:19:28;1.63;;;1.53;;
72139;SDS011;60018;49.688;19.180;2022-12-29T08:21:54;1.60;;;1.43;;
72139;SDS011;60018;49.688;19.180;2022-12-29T08:24:21;1.37;;;1.27;;
72139;SDS011;60018;49.688;19.180;2022-12-29T08:26:46;1.73;;;1.57;;
72139;SDS011;60018;49.688;19.180;2022-12-29T08:29:11;1.97;;;1.57;;
72139;SDS011;60018;49.688;19.180;2022-12-29T08:31:37;1.47;;;1.37;;
72139;SDS011;60018;49.688;19.180;2022-12-29T08:34:03;1.30;;;1.20;;
72139;SDS011;60018;49.688;19.180;2022-12-29T08:36:28;1.60;;;1.47;;
72139;SDS011;60018;49.688;19.180;2022-12-29T08:38:54;2.00;;;1.50;;
72139;SDS011;60018;49.688;19.180;2022-12-29T08:41:21;1.83;;;1.63;;
72139;SDS011;60018;49.688;19.180;2022-12-29T08:43:46;1.33;;;1.23;;
72139;SDS011;60018;49.688;19.180;2022-12-29T08:46:12;1.60;;;1.47;;
72139;SDS011;60018;49.688;19.180;2022-12-29T08:48:37;1.70;;;1.53;;
72139;SDS011;60018;49.688;19.180;2022-12-29T08:51:03;1.47;;;1.37;;
72139;SDS011;60018;49.688;19.180;2022-12-29T08:53:28;1.37;;;1.27;;
72139;SDS011;60018;49.688;19.180;2022-12-29T08:55:55;1.70;;;1.53;;
72139;SDS011;60018;49.688;19.180;2022-12-29T08:58:23;1.73;;;1.63;;
72139;SDS011;60018;49.688;19.180;2022-12-29T09:00:49;1.73;;;1.53;;
72139;SDS011;60018;49.688;19.180;2022-12-29T09:03:16;1.37;;;1.27;;
72139;SDS011;60018;49.688;19.180;2022-12-29T09:05:42;1.70;;;1.47;;
72139;SDS011;60018;49.688;19.180;2022-12-29T09:08:07;1.40;;;1.27;;
72139;SDS011;60018;49.688;19.180;2022-12-29T09:10:33;1.88;;;1.65;;
72139;SDS011;60018;49.688;19.180;2022-12-29T09:12:58;1.43;;;1.33;;
72139;SDS011;60018;49.688;19.180;2022-12-29T09:15:25;1.93;;;1.63;;
72139;SDS011;60018;49.688;19.180;2022-12-29T09:17:50;1.90;;;1.60;;
72139;SDS011;60018;49.688;19.180;2022-12-29T09:20:16;1.33;;;1.23;;
72139;SDS011;60018;49.688;19.180;2022-12-29T09:22:43;1.90;;;1.63;;
72139;SDS011;60018;49.688;19.180;2022-12-29T09:25:09;1.95;;;1.65;;
72139;SDS011;60018;49.688;19.180;2022-12-29T09:27:35;2.03;;;1.75;;
72139;SDS011;60018;49.688;19.180;2022-12-29T09:30:01;2.13;;;1.93;;
72139;SDS011;60018;49.688;19.180;2022-12-29T09:32:28;2.00;;;1.77;;
72139;SDS011;60018;49.688;19.180;2022-12-29T09:34:54;1.90;;;1.57;;
72139;SDS011;60018;49.688;19.180;2022-12-29T09:37:19;2.20;;;2.00;;
72139;SDS011;60018;49.688;19.180;2022-12-29T09:39:44;1.98;;;1.75;;
72139;SDS011;60018;49.688;19.180;2022-12-29T09:42:12;1.92;;;1.60;;
72139;SDS011;60018;49.688;19.180;2022-12-29T09:44:45;1.42;;;1.33;;
72139;SDS011;60018;49.688;19.180;2022-12-29T09:47:15;1.83;;;1.60;;
72139;SDS011;60018;49.688;19.180;2022-12-29T09:49:43;1.83;;;1.63;;
72139;SDS011;60018;49.688;19.180;2022-12-29T09:52:10;1.90;;;1.70;;
72139;SDS011;60018;49.688;19.180;2022-12-29T09:54:39;1.92;;;1.70;;
72139;SDS011;60018;49.688;19.180;2022-12-29T09:57:18;1.90;;;1.65;;
72139;SDS011;60018;49.688;19.180;2022-12-29T09:59:46;1.98;;;1.75;;
72139;SDS011;60018;49.688;19.180;2022-12-29T10:02:14;1.93;;;1.60;;
72139;SDS011;60018;49.688;19.180;2022-12-29T10:04:47;1.52;;;1.42;;
72139;SDS011;60018;49.688;19.180;2022-12-29T10:07:14;1.50;;;1.40;;
72139;SDS011;60018;49.688;19.180;2022-12-29T10:09:46;1.77;;;1.30;;
72139;SDS011;60018;49.688;19.180;2022-12-29T10:12:20;1.63;;;1.53;;
72139;SDS011;60018;49.688;19.180;2022-12-29T10:14:54;1.87;;;1.67;;
72139;SDS011;60018;49.688;19.180;2022-12-29T10:17:27;1.83;;;1.63;;
72139;SDS011;60018;49.688;19.180;2022-12-29T10:25:20;1.73;;;1.63;;
72139;SDS011;60018;49.688;19.180;2022-12-29T10:27:47;1.67;;;1.53;;
72139;SDS011;60018;49.688;19.180;2022-12-29T10:30:13;1.33;;;1.23;;
72139;SDS011;60018;49.688;19.180;2022-12-29T10:32:40;1.60;;;1.47;;
72139;SDS011;60018;49.688;19.180;2022-12-29T10:35:10;1.70;;;1.57;;
72139;SDS011;60018;49.688;19.180;2022-12-29T10:37:41;1.83;;;1.58;;
72139;SDS011;60018;49.688;19.180;2022-12-29T10:40:15;1.70;;;1.57;;
72139;SDS011;60018;49.688;19.180;2022-12-29T10:42:45;1.90;;;1.65;;
72139;SDS011;60018;49.688;19.180;2022-12-29T10:45:14;1.83;;;1.60;;
72139;SDS011;60018;49.688;19.180;2022-12-29T10:47:42;1.50;;;1.40;;
72139;SDS011;60018;49.688;19.180;2022-12-29T10:50:15;1.98;;;1.75;;
72139;SDS011;60018;49.688;19.180;2022-12-29T10:52:42;1.90;;;1.70;;
72139;SDS011;60018;49.688;19.180;2022-12-29T10:55:08;2.03;;;1.77;;
72139;SDS011;60018;49.688;19.180;2022-12-29T10:57:39;1.90;;;1.70;;
72139;SDS011;60018;49.688;19.180;2022-12-29T11:00:09;2.10;;;1.85;;
72139;SDS011;60018;49.688;19.180;2022-12-29T11:02:43;2.00;;;1.80;;
72139;SDS011;60018;49.688;19.180;2022-12-29T11:05:19;2.08;;;1.88;;
72139;SDS011;60018;49.688;19.180;2022-12-29T11:07:48;1.80;;;1.52;;
72139;SDS011;60018;49.688;19.180;2022-12-29T11:10:16;1.60;;;1.45;;
72139;SDS011;60018;49.688;19.180;2022-12-29T11:12:54;2.13;;;1.90;;
72139;SDS011;60018;49.688;19.180;2022-12-29T11:15:21;2.03;;;1.77;;
72139;SDS011;60018;49.688;19.180;2022-12-29T11:17:47;2.25;;;2.05;;
72139;SDS011;60018;49.688;19.180;2022-12-29T11:23:03;2.00;;;1.73;;
72139;SDS011;60018;49.688;19.180;2022-12-29T11:25:29;2.03;;;1.83;;
72139;SDS011;60018;49.688;19.180;2022-12-29T11:27:55;2.03;;;1.80;;
72139;SDS011;60018;49.688;19.180;2022-12-29T11:30:22;2.03;;;1.75;;
72139;SDS011;60018;49.688;19.180;2022-12-29T11:32:50;2.05;;;1.83;;
72139;SDS011;60018;49.688;19.180;2022-12-29T11:35:17;2.05;;;1.85;;
72139;SDS011;60018;49.688;19.180;2022-12-29T11:37:55;2.00;;;1.65;;
72139;SDS011;60018;49.688;19.180;2022-12-29T11:40:22;2.03;;;1.83;;
72139;SDS011;60018;49.688;19.180;2022-12-29T11:42:50;2.03;;;1.75;;
72139;SDS011;60018;49.688;19.180;2022-12-29T11:45:18;2.17;;;1.98;;
72139;SDS011;60018;49.688;19.180;2022-12-29T11:47:45;2.03;;;1.75;;
72139;SDS011;60018;49.688;19.180;2022-12-29T11:50:16;2.17;;;1.98;;
72139;SDS011;60018;49.688;19.180;2022-12-29T11:52:43;1.95;;;1.70;;
72139;SDS011;60018;49.688;19.180;2022-12-29T11:55:21;2.15;;;1.95;;
72139;SDS011;60018;49.688;19.180;2022-12-29T11:57:51;1.50;;;1.30;;
72139;SDS011;60018;49.688;19.180;2022-12-29T12:00:17;2.05;;;1.85;;
72139;SDS011;60018;49.688;19.180;2022-12-29T12:02:50;2.25;;;2.05;;
72139;SDS011;60018;49.688;19.180;2022-12-29T12:05:20;1.70;;;1.25;;
72139;SDS011;60018;49.688;19.180;2022-12-29T12:07:49;1.92;;;1.73;;
72139;SDS011;60018;49.688;19.180;2022-12-29T12:10:19;2.08;;;1.85;;
72139;SDS011;60018;49.688;19.180;2022-12-29T12:12:50;2.00;;;1.75;;
72139;SDS011;60018;49.688;19.180;2022-12-29T12:15:20;1.83;;;1.63;;
72139;SDS011;60018;49.688;19.180;2022-12-29T12:17:50;2.08;;;1.85;;
72139;SDS011;60018;49.688;19.180;2022-12-29T12:20:18;1.90;;;1.60;;
72139;SDS011;60018;49.688;19.180;2022-12-29T12:22:45;2.03;;;1.80;;
72139;SDS011;60018;49.688;19.180;2022-12-29T12:25:17;2.15;;;1.95;;
72139;SDS011;60018;49.688;19.180;2022-12-29T12:27:47;2.05;;;1.80;;
72139;SDS011;60018;49.688;19.180;2022-12-29T12:30:16;2.05;;;1.85;;
72139;SDS011;60018;49.688;19.180;2022-12-29T12:32:44;2.03;;;1.83;;
72139;SDS011;60018;49.688;19.180;2022-12-29T12:35:11;2.03;;;1.80;;
72139;SDS011;60018;49.688;19.180;2022-12-29T12:37:42;2.17;;;1.98;;
72139;SDS011;60018;49.688;19.180;2022-12-29T12:40:34;2.10;;;1.90;;
72139;SDS011;60018;49.688;19.180;2022-12-29T12:43:09;1.45;;;1.35;;
72139;SDS011;60018;49.688;19.180;2022-12-29T12:45:46;2.05;;;1.83;;
72139;SDS011;60018;49.688;19.180;2022-12-29T12:48:18;2.20;;;2.00;;
72139;SDS011;60018;49.688;19.180;2022-12-29T12:51:05;1.60;;;1.42;;
72139;SDS011;60018;49.688;19.180;2022-12-29T12:53:40;2.00;;;1.65;;
72139;SDS011;60018;49.688;19.180;2022-12-29T12:56:18;2.03;;;1.83;;
72139;SDS011;60018;49.688;19.180;2022-12-29T12:58:55;1.95;;;1.75;;
72139;SDS011;60018;49.688;19.180;2022-12-29T13:01:28;1.98;;;1.58;;
72139;SDS011;60018;49.688;19.180;2022-12-29T13:04:10;1.80;;;1.55;;
72139;SDS011;60018;49.688;19.180;2022-12-29T13:06:44;2.03;;;1.80;;
72139;SDS011;60018;49.688;19.180;2022-12-29T13:09:21;1.95;;;1.75;;
72139;SDS011;60018;49.688;19.180;2022-12-29T13:11:56;2.05;;;1.80;;
72139;SDS011;60018;49.688;19.180;2022-12-29T13:14:36;1.90;;;1.65;;
72139;SDS011;60018;49.688;19.180;2022-12-29T13:17:07;2.10;;;1.90;;
72139;SDS011;60018;49.688;19.180;2022-12-29T13:19:38;2.03;;;1.77;;
72139;SDS011;60018;49.688;19.180;2022-12-29T13:22:07;2.03;;;1.80;;
72139;SDS011;60018;49.688;19.180;2022-12-29T13:24:36;1.98;;;1.70;;
72139;SDS011;60018;49.688;19.180;2022-12-29T13:27:11;2.03;;;1.80;;
72139;SDS011;60018;49.688;19.180;2022-12-29T13:29:43;2.13;;;1.92;;
72139;SDS011;60018;49.688;19.180;2022-12-29T13:32:16;1.95;;;1.75;;
72139;SDS011;60018;49.688;19.180;2022-12-29T13:34:47;1.52;;;1.40;;
72139;SDS011;60018;49.688;19.180;2022-12-29T13:37:19;1.80;;;1.45;;
72139;SDS011;60018;49.688;19.180;2022-12-29T13:39:46;1.95;;;1.75;;
72139;SDS011;60018;49.688;19.180;2022-12-29T13:42:13;1.77;;;1.45;;
72139;SDS011;60018;49.688;19.180;2022-12-29T13:44:44;2.15;;;1.95;;
72139;SDS011;60018;49.688;19.180;2022-12-29T13:47:15;2.05;;;1.83;;
72139;SDS011;60018;49.688;19.180;2022-12-29T13:49:44;1.90;;;1.65;;
72139;SDS011;60018;49.688;19.180;2022-12-29T13:52:11;2.08;;;1.85;;
72139;SDS011;60018;49.688;19.180;2022-12-29T13:54:42;2.00;;;1.80;;
72139;SDS011;60018;49.688;19.180;2022-12-29T13:57:10;2.03;;;1.80;;
72139;SDS011;60018;49.688;19.180;2022-12-29T13:59:47;2.10;;;1.90;;
72139;SDS011;60018;49.688;19.180;2022-12-29T14:02:17;2.03;;;1.75;;
72139;SDS011;60018;49.688;19.180;2022-12-29T14:04:57;2.13;;;1.90;;
72139;SDS011;60018;49.688;19.180;2022-12-29T14:07:24;2.00;;;1.75;;
72139;SDS011;60018;49.688;19.180;2022-12-29T14:09:50;1.90;;;1.67;;
72139;SDS011;60018;49.688;19.180;2022-12-29T14:12:19;2.10;;;1.90;;
72139;SDS011;60018;49.688;19.180;2022-12-29T14:14:48;2.03;;;1.80;;
72139;SDS011;60018;49.688;19.180;2022-12-29T14:17:16;2.03;;;1.77;;
72139;SDS011;60018;49.688;19.180;2022-12-29T14:19:44;1.95;;;1.70;;
72139;SDS011;60018;49.688;19.180;2022-12-29T14:22:10;2.00;;;1.75;;
72139;SDS011;60018;49.688;19.180;2022-12-29T14:24:40;2.00;;;1.80;;
72139;SDS011;60018;49.688;19.180;2022-12-29T14:33:14;1.77;;;1.50;;
72139;SDS011;60018;49.688;19.180;2022-12-29T14:35:41;1.92;;;1.65;;
72139;SDS011;60018;49.688;19.180;2022-12-29T14:38:13;1.95;;;1.60;;
72139;SDS011;60018;49.688;19.180;2022-12-29T14:40:47;1.95;;;1.75;;
72139;SDS011;60018;49.688;19.180;2022-12-29T14:43:13;1.83;;;1.60;;
72139;SDS011;60018;49.688;19.180;2022-12-29T14:45:43;1.98;;;1.70;;
72139;SDS011;60018;49.688;19.180;2022-12-29T14:51:02;1.70;;;1.57;;
72139;SDS011;60018;49.688;19.180;2022-12-29T14:53:44;1.83;;;1.60;;
72139;SDS011;60018;49.688;19.180;2022-12-29T14:56:11;1.70;;;1.57;;
72139;SDS011;60018;49.688;19.180;2022-12-29T14:58:38;1.47;;;1.37;;